Time;durP1;ratioP1;P1;durP2;ratioP2;P2;SDS_P1;SDS_P2;PMS_P1;PMS_P2;Temp;Humidity;BMP_temperature;BMP_pressure;BME280_temperature;BME280_humidity;BME280_pressure;Samples;Min_cycle;Max_cycle;Signal;HPM_P1;HPM_P2
2021/06/28 00:01:05;;;;;;;13.05;7.22;;;15.50;99.90;;;;;;5030786;28;20123;-82
2021/06/28 00:03:32;;;;;;;11.80;6.88;;;15.50;99.90;;;;;;5030866;28;20056;-82
2021/06/28 00:05:59;;;;;;;16.90;7.07;;;15.50;99.90;;;;;;5051030;28;20041;-82
2021/06/28 00:08:28;;;;;;;12.02;7.15;;;15.50;99.90;;;;;;5023359;28;20443;-82
2021/06/28 00:10:54;;;;;;;17.70;6.88;;;15.40;99.90;;;;;;5032039;28;20055;-82
2021/06/28 00:13:21;;;;;;;13.40;7.57;;;15.40;99.90;;;;;;5049186;28;20037;-82
2021/06/28 00:15:46;;;;;;;13.25;7.82;;;15.40;99.90;;;;;;5051093;28;20043;-82
2021/06/28 00:18:15;;;;;;;12.23;7.75;;;15.40;99.90;;;;;;5033745;28;20057;-82
2021/06/28 00:20:41;;;;;;;11.73;7.68;;;15.40;99.90;;;;;;5041552;28;20489;-82
2021/06/28 00:23:08;;;;;;;12.50;7.78;;;15.30;99.90;;;;;;5031141;28;20045;-82
2021/06/28 00:25:34;;;;;;;13.02;6.57;;;15.30;99.90;;;;;;5047563;28;20044;-82
2021/06/28 00:28:00;;;;;;;11.60;7.53;;;15.30;99.90;;;;;;5049093;28;20033;-82
2021/06/28 00:30:29;;;;;;;13.70;7.45;;;15.30;99.90;;;;;;5050073;28;20040;-82
2021/06/28 00:32:56;;;;;;;12.18;6.68;;;15.30;99.90;;;;;;5050169;28;20123;-82
2021/06/28 00:35:22;;;;;;;11.70;6.75;;;15.30;99.90;;;;;;5047543;28;20029;-82
2021/06/28 00:37:49;;;;;;;13.05;7.47;;;15.30;99.90;;;;;;5046051;28;20083;-83
2021/06/28 00:40:17;;;;;;;9.80;7.03;;;15.30;99.90;;;;;;5031617;28;20036;-82
2021/06/28 00:47:16;;;;;;;15.25;7.20;;;15.40;99.90;;;;;;5051260;28;20131;-83
2021/06/28 00:49:42;;;;;;;11.88;7.10;;;15.30;99.90;;;;;;5055422;28;20135;-83
2021/06/28 00:52:09;;;;;;;12.68;7.30;;;15.40;99.90;;;;;;5050692;28;20043;-83
2021/06/28 00:54:37;;;;;;;15.00;7.75;;;15.40;99.90;;;;;;5054351;28;20128;-82
2021/06/28 00:57:03;;;;;;;15.70;6.80;;;15.40;99.90;;;;;;5075968;28;20037;-82
2021/06/28 00:59:31;;;;;;;14.55;7.63;;;15.40;99.90;;;;;;5030422;28;20527;-82
2021/06/28 01:01:59;;;;;;;10.75;7.25;;;15.40;99.90;;;;;;5049915;28;20047;-82
2021/06/28 01:04:26;;;;;;;11.75;6.85;;;15.40;99.90;;;;;;5048046;28;20097;-83
2021/06/28 01:06:52;;;;;;;11.88;7.13;;;15.40;99.90;;;;;;5070160;28;20048;-82
2021/06/28 01:09:18;;;;;;;11.63;6.50;;;15.40;99.90;;;;;;5045814;28;20037;-82
2021/06/28 01:11:44;;;;;;;9.75;6.38;;;15.50;99.90;;;;;;5048610;28;20033;-83
2021/06/28 01:14:09;;;;;;;14.35;7.00;;;15.40;99.90;;;;;;5074564;28;20048;-82
2021/06/28 01:16:36;;;;;;;13.40;6.68;;;15.50;99.90;;;;;;5050536;28;20120;-83
2021/06/28 01:19:04;;;;;;;14.27;7.68;;;15.50;99.90;;;;;;5048680;28;20049;-82
2021/06/28 01:21:33;;;;;;;12.80;7.50;;;15.50;99.90;;;;;;5043665;28;20052;-83
2021/06/28 01:23:59;;;;;;;12.45;7.55;;;15.40;99.90;;;;;;5072724;28;20140;-83
2021/06/28 01:26:26;;;;;;;11.85;7.10;;;15.50;99.90;;;;;;5047357;28;20135;-82
2021/06/28 01:28:52;;;;;;;11.77;6.80;;;15.50;99.90;;;;;;5071377;28;20029;-82
2021/06/28 01:31:18;;;;;;;11.32;6.75;;;15.50;99.90;;;;;;5044732;28;20068;-82
2021/06/28 01:33:44;;;;;;;17.63;7.65;;;15.50;99.90;;;;;;5050092;28;20091;-83
2021/06/28 01:36:10;;;;;;;16.45;7.75;;;15.50;99.90;;;;;;5049143;28;20094;-82
2021/06/28 01:38:36;;;;;;;13.57;7.40;;;15.40;99.90;;;;;;5046463;28;20132;-82
2021/06/28 01:41:02;;;;;;;12.23;7.05;;;15.40;99.90;;;;;;5040234;28;20064;-82
2021/06/28 01:43:28;;;;;;;12.68;7.70;;;15.40;99.90;;;;;;5049375;28;20045;-82
2021/06/28 01:45:55;;;;;;;12.93;7.97;;;15.30;99.90;;;;;;5043102;28;20053;-83
2021/06/28 01:48:22;;;;;;;13.55;8.02;;;15.30;99.90;;;;;;5074869;28;20029;-83
2021/06/28 01:50:48;;;;;;;15.30;7.60;;;15.30;99.90;;;;;;5048852;28;20033;-82
2021/06/28 01:53:14;;;;;;;12.75;8.70;;;15.30;99.90;;;;;;5049131;28;20040;-83
2021/06/28 01:55:40;;;;;;;16.92;8.70;;;15.30;99.90;;;;;;5048930;28;20112;-82
2021/06/28 01:58:09;;;;;;;15.27;9.18;;;15.30;99.90;;;;;;5070696;28;20049;-82
2021/06/28 02:00:43;;;;;;;17.63;9.10;;;15.40;99.90;;;;;;5048399;28;20041;-82
2021/06/28 02:03:10;;;;;;;14.38;9.73;;;15.30;99.90;;;;;;5046764;28;20041;-82
2021/06/28 02:06:04;;;;;;;14.13;9.52;;;15.30;99.90;;;;;;5028565;28;20047;-82
2021/06/28 02:08:32;;;;;;;13.77;9.55;;;15.40;99.90;;;;;;5060038;28;20144;-83
2021/06/28 02:11:00;;;;;;;19.40;9.95;;;15.30;99.90;;;;;;5023941;28;20049;-82
2021/06/28 02:13:28;;;;;;;18.65;9.88;;;15.40;99.90;;;;;;5049468;28;20112;-82
2021/06/28 02:15:55;;;;;;;14.90;10.50;;;15.40;99.90;;;;;;5025860;28;20052;-82
2021/06/28 02:18:23;;;;;;;21.88;9.98;;;15.40;99.90;;;;;;5044403;28;20037;-82
2021/06/28 02:20:55;;;;;;;17.27;10.55;;;15.50;99.90;;;;;;5048201;28;20043;-82
2021/06/28 02:23:20;;;;;;;15.05;10.05;;;15.40;99.90;;;;;;5041423;28;20041;-83
2021/06/28 02:26:14;;;;;;;15.98;10.70;;;15.40;99.90;;;;;;5031439;28;20400;-82
2021/06/28 02:28:42;;;;;;;18.20;10.73;;;15.50;99.90;;;;;;5041458;28;20053;-83
2021/06/28 02:31:11;;;;;;;15.40;10.05;;;15.50;99.90;;;;;;5028057;28;20060;-82
2021/06/28 02:33:39;;;;;;;16.17;10.18;;;15.40;99.90;;;;;;5047961;28;20035;-83
2021/06/28 02:36:06;;;;;;;17.83;10.35;;;15.40;99.90;;;;;;5027524;28;20041;-83
2021/06/28 02:38:33;;;;;;;14.35;9.57;;;15.40;99.90;;;;;;5044181;28;20029;-83
2021/06/28 02:40:59;;;;;;;12.30;9.65;;;15.30;99.90;;;;;;5030392;28;20099;-82
2021/06/28 02:43:25;;;;;;;15.63;9.70;;;15.40;99.90;;;;;;5028670;28;20479;-83
2021/06/28 02:45:51;;;;;;;15.80;9.88;;;15.30;99.90;;;;;;5049925;28;20072;-82
2021/06/28 02:48:17;;;;;;;15.38;10.10;;;15.30;99.90;;;;;;5041588;28;20439;-82
2021/06/28 02:50:43;;;;;;;13.50;9.65;;;15.20;99.90;;;;;;5042022;28;20029;-82
2021/06/28 02:53:09;;;;;;;17.23;8.98;;;15.20;99.90;;;;;;5028806;28;20091;-82
2021/06/28 02:55:35;;;;;;;15.55;9.10;;;15.30;99.90;;;;;;5048468;28;20144;-82
2021/06/28 02:58:01;;;;;;;12.57;8.90;;;15.20;99.90;;;;;;5048982;28;20033;-82
2021/06/28 03:00:27;;;;;;;16.63;9.23;;;15.20;99.90;;;;;;5055903;28;20041;-82
2021/06/28 03:02:58;;;;;;;15.70;8.68;;;15.20;99.90;;;;;;5049514;28;20492;-82
2021/06/28 03:05:24;;;;;;;13.45;8.73;;;15.20;99.90;;;;;;5049318;28;20080;-82
2021/06/28 03:07:50;;;;;;;12.68;8.82;;;15.20;99.90;;;;;;5047830;28;20155;-83
2021/06/28 03:10:16;;;;;;;16.00;8.80;;;15.20;99.90;;;;;;5052774;28;20681;-82
2021/06/28 03:12:42;;;;;;;14.45;8.63;;;15.10;99.90;;;;;;5051014;28;20095;-82
2021/06/28 03:15:13;;;;;;;13.73;9.13;;;15.20;99.90;;;;;;5051816;28;20040;-82
2021/06/28 03:17:39;;;;;;;14.20;9.13;;;15.20;99.90;;;;;;5026860;28;20440;-82
2021/06/28 03:20:11;;;;;;;14.95;8.65;;;15.20;99.90;;;;;;5046589;28;20098;-83
2021/06/28 03:22:39;;;;;;;16.90;9.23;;;15.10;99.90;;;;;;5057900;28;20052;-82
2021/06/28 03:25:10;;;;;;;14.82;9.30;;;15.10;99.90;;;;;;5052053;28;20059;-82
2021/06/28 03:27:37;;;;;;;17.75;9.32;;;15.10;99.90;;;;;;5052971;28;20041;-82
2021/06/28 03:30:05;;;;;;;11.77;9.05;;;15.30;99.90;;;;;;5051097;28;20044;-82
2021/06/28 03:32:31;;;;;;;16.13;9.32;;;15.20;99.90;;;;;;5050717;28;20029;-82
2021/06/28 03:34:57;;;;;;;20.48;9.50;;;15.20;99.90;;;;;;5051842;28;20378;-82
2021/06/28 03:37:23;;;;;;;15.68;9.00;;;15.20;99.90;;;;;;5044939;28;20095;-83
2021/06/28 03:39:49;;;;;;;21.15;8.85;;;15.20;99.90;;;;;;5052009;28;20096;-82
2021/06/28 03:42:15;;;;;;;17.55;9.30;;;15.10;99.90;;;;;;5050497;28;20135;-82
2021/06/28 03:44:40;;;;;;;13.80;8.63;;;15.20;99.90;;;;;;5050201;28;20113;-83
2021/06/28 03:47:07;;;;;;;14.63;8.80;;;15.30;99.90;;;;;;5053522;28;20069;-83
2021/06/28 03:49:33;;;;;;;17.70;9.15;;;15.30;99.90;;;;;;5051023;28;20119;-82
2021/06/28 03:51:59;;;;;;;17.73;9.18;;;15.30;99.90;;;;;;5046983;28;20041;-82
2021/06/28 03:54:25;;;;;;;16.08;8.65;;;15.40;99.90;;;;;;5052655;28;20098;-82
2021/06/28 03:56:51;;;;;;;16.85;9.23;;;15.40;99.90;;;;;;5051784;28;20041;-83
2021/06/28 03:59:17;;;;;;;11.95;8.13;;;15.40;99.90;;;;;;5049620;28;20087;-82
2021/06/28 04:01:43;;;;;;;17.67;8.63;;;15.50;99.90;;;;;;5048722;28;20085;-82
2021/06/28 04:04:08;;;;;;;14.73;8.45;;;15.50;99.90;;;;;;5052923;28;20036;-82
2021/06/28 04:06:35;;;;;;;12.85;8.38;;;15.60;99.90;;;;;;5051764;28;20029;-82
2021/06/28 04:09:02;;;;;;;16.80;8.40;;;15.60;99.90;;;;;;5032906;28;20063;-83
2021/06/28 04:11:29;;;;;;;12.70;7.78;;;15.80;99.90;;;;;;5046565;28;20492;-82
2021/06/28 04:13:59;;;;;;;17.88;8.38;;;15.70;99.90;;;;;;5030184;28;20056;-82
2021/06/28 04:16:25;;;;;;;14.80;7.88;;;15.70;99.90;;;;;;5039962;28;20112;-82
2021/06/28 04:18:51;;;;;;;14.23;7.75;;;15.80;99.90;;;;;;5031996;28;20041;-82
2021/06/28 04:21:17;;;;;;;17.88;8.50;;;15.80;99.90;;;;;;5071937;28;20436;-83
2021/06/28 04:23:44;;;;;;;13.52;7.97;;;15.90;99.90;;;;;;5028682;28;20044;-82
2021/06/28 04:26:10;;;;;;;14.85;7.47;;;16.00;99.90;;;;;;5051439;28;20127;-82
2021/06/28 04:28:37;;;;;;;17.50;8.40;;;16.00;99.90;;;;;;5052547;28;20472;-82
2021/06/28 04:31:04;;;;;;;13.40;7.60;;;16.00;99.90;;;;;;5048095;28;20397;-82
2021/06/28 04:33:31;;;;;;;15.27;7.47;;;16.10;99.90;;;;;;5041931;28;20381;-82
2021/06/28 04:35:58;;;;;;;15.38;7.97;;;16.10;99.90;;;;;;5050753;28;20037;-83
2021/06/28 04:38:25;;;;;;;14.20;7.88;;;16.10;99.90;;;;;;5050483;28;20048;-83
2021/06/28 04:40:51;;;;;;;17.35;7.88;;;16.10;99.90;;;;;;5035328;28;20048;-82
2021/06/28 04:46:45;;;;;;;14.23;7.47;;;16.10;99.90;;;;;;5042511;28;20052;-83
2021/06/28 04:49:11;;;;;;;11.98;7.57;;;16.30;99.90;;;;;;5044349;28;20136;-85
2021/06/28 04:51:39;;;;;;;10.55;7.43;;;16.30;99.90;;;;;;5061808;28;20037;-84
2021/06/28 04:54:05;;;;;;;20.52;6.43;;;16.40;99.90;;;;;;5047651;28;20041;-82
2021/06/28 04:56:34;;;;;;;12.98;6.82;;;16.50;99.90;;;;;;5050139;28;20158;-82
2021/06/28 04:59:00;;;;;;;16.17;7.43;;;16.40;99.90;;;;;;5045529;28;20183;-83
2021/06/28 05:01:26;;;;;;;13.05;7.20;;;16.60;99.90;;;;;;5064088;28;20485;-83
2021/06/28 05:03:54;;;;;;;15.93;7.30;;;16.60;99.90;;;;;;5034048;28;20049;-84
2021/06/28 05:06:20;;;;;;;14.38;7.15;;;16.50;99.90;;;;;;5051706;28;20118;-83
2021/06/28 05:08:49;;;;;;;16.92;7.60;;;16.40;99.90;;;;;;5050129;28;20055;-84
2021/06/28 05:11:15;;;;;;;15.70;7.55;;;16.60;99.90;;;;;;5050898;28;20384;-82
2021/06/28 05:13:44;;;;;;;12.82;6.18;;;16.40;99.90;;;;;;5050871;28;20468;-81
2021/06/28 05:16:14;;;;;;;15.38;6.80;;;16.70;99.90;;;;;;5050352;28;20060;-85
2021/06/28 05:18:40;;;;;;;20.33;7.90;;;16.80;99.90;;;;;;5038253;28;20026;-85
2021/06/28 05:21:08;;;;;;;12.23;7.38;;;16.70;99.90;;;;;;5049749;28;20041;-82
2021/06/28 05:23:34;;;;;;;13.32;7.55;;;16.60;99.90;;;;;;5044752;28;20039;-79
2021/06/28 05:26:00;;;;;;;14.43;7.60;;;16.60;99.90;;;;;;5073561;28;20431;-79
2021/06/28 05:28:29;;;;;;;17.10;7.47;;;16.60;99.90;;;;;;5069559;28;20040;-80
2021/06/28 05:30:55;;;;;;;14.43;7.80;;;16.60;99.90;;;;;;5049899;28;20516;-81
2021/06/28 05:33:20;;;;;;;18.95;8.60;;;16.70;99.90;;;;;;5049032;28;20033;-81
2021/06/28 05:35:46;;;;;;;14.27;7.68;;;16.70;99.90;;;;;;5044768;28;20037;-83
2021/06/28 05:38:12;;;;;;;17.75;8.30;;;16.70;99.90;;;;;;5048258;28;20068;-82
2021/06/28 05:40:38;;;;;;;18.65;8.55;;;16.70;99.90;;;;;;5048553;28;20033;-81
2021/06/28 05:43:05;;;;;;;13.80;8.27;;;16.70;99.90;;;;;;5045863;28;20094;-82
2021/06/28 05:45:32;;;;;;;17.45;8.07;;;16.80;99.90;;;;;;5046366;28;20084;-78
2021/06/28 05:47:58;;;;;;;16.77;7.88;;;16.80;99.90;;;;;;5049745;28;20061;-78
2021/06/28 05:50:25;;;;;;;11.93;7.25;;;16.80;99.90;;;;;;5048798;28;20063;-78
2021/06/28 05:52:51;;;;;;;14.52;7.75;;;17.00;99.90;;;;;;5065325;28;20476;-79
2021/06/28 05:55:17;;;;;;;16.98;7.38;;;17.10;99.90;;;;;;5048608;28;20116;-82
2021/06/28 05:57:43;;;;;;;16.02;7.43;;;17.30;99.90;;;;;;5047978;28;20045;-82
2021/06/28 06:00:12;;;;;;;13.02;7.22;;;17.50;99.90;;;;;;5045788;28;20127;-81
2021/06/28 06:02:38;;;;;;;16.23;7.32;;;17.60;99.90;;;;;;5045929;28;20099;-79
2021/06/28 06:05:08;;;;;;;10.95;6.72;;;17.60;99.90;;;;;;5043484;28;20570;-82
2021/06/28 06:07:38;;;;;;;15.10;6.32;;;17.60;99.90;;;;;;5050483;28;20761;-82
2021/06/28 06:10:10;;;;;;;13.60;6.72;;;17.70;99.90;;;;;;5047796;28;20174;-82
2021/06/28 06:12:36;;;;;;;11.43;6.57;;;17.80;99.90;;;;;;5029231;28;20033;-82
2021/06/28 06:15:07;;;;;;;11.55;6.38;;;17.80;99.90;;;;;;5045376;28;20094;-82
2021/06/28 06:17:33;;;;;;;15.32;6.35;;;17.80;99.90;;;;;;5047147;28;20469;-82
2021/06/28 06:19:59;;;;;;;15.88;7.25;;;18.10;99.90;;;;;;5060127;28;20037;-82
2021/06/28 06:22:25;;;;;;;11.20;6.60;;;18.30;99.90;;;;;;5031054;28;20049;-82
2021/06/28 06:24:51;;;;;;;15.65;7.07;;;18.30;99.90;;;;;;5049610;28;20587;-81
2021/06/28 06:27:19;;;;;;;10.63;6.15;;;18.40;99.90;;;;;;5042092;28;20051;-82
2021/06/28 06:29:45;;;;;;;13.25;6.28;;;18.40;99.90;;;;;;5051598;28;20086;-81
2021/06/28 06:32:14;;;;;;;11.15;6.30;;;18.60;99.90;;;;;;5049034;28;20040;-82
2021/06/28 06:34:40;;;;;;;12.52;6.68;;;18.60;99.90;;;;;;5048374;28;20040;-83
2021/06/28 06:37:06;;;;;;;16.70;6.50;;;18.70;99.90;;;;;;5050549;28;20036;-83
2021/06/28 06:39:33;;;;;;;12.43;6.63;;;18.90;99.90;;;;;;5050920;28;20040;-82
2021/06/28 06:41:59;;;;;;;13.32;6.10;;;19.00;99.90;;;;;;5051193;28;20045;-83
2021/06/28 06:44:28;;;;;;;9.30;6.10;;;19.10;99.90;;;;;;5032814;28;20049;-83
2021/06/28 06:46:54;;;;;;;15.00;6.22;;;19.20;99.90;;;;;;5052087;28;20103;-83
2021/06/28 06:49:19;;;;;;;11.60;6.40;;;19.40;99.90;;;;;;5054299;28;20112;-82
2021/06/28 06:51:46;;;;;;;12.00;6.68;;;19.60;99.90;;;;;;5054825;28;20037;-82
2021/06/28 06:54:12;;;;;;;13.98;7.05;;;19.60;99.90;;;;;;5053546;28;20091;-81
2021/06/28 06:56:38;;;;;;;12.43;6.30;;;19.60;99.90;;;;;;5051589;28;20037;-81
2021/06/28 06:59:05;;;;;;;9.90;6.22;;;19.60;99.90;;;;;;5048757;28;20500;-82
2021/06/28 07:01:35;;;;;;;12.63;6.55;;;19.60;99.90;;;;;;5041804;28;20560;-83
2021/06/28 07:04:00;;;;;;;12.10;6.57;;;19.70;99.90;;;;;;5026152;28;20052;-83
2021/06/28 07:06:32;;;;;;;15.27;6.47;;;19.70;99.90;;;;;;5056231;28;20171;-82
2021/06/28 07:09:02;;;;;;;20.75;7.00;;;19.80;99.90;;;;;;5040133;28;20484;-82
2021/06/28 07:12:02;;;;;;;17.33;7.13;;;19.90;99.90;;;;;;5061547;28;20133;-82
2021/06/28 07:14:28;;;;;;;15.20;6.75;;;20.10;99.90;;;;;;5057590;28;20043;-82
2021/06/28 07:16:54;;;;;;;15.77;6.95;;;20.10;99.90;;;;;;5058149;28;20549;-82
2021/06/28 07:19:19;;;;;;;19.23;7.05;;;20.10;99.90;;;;;;5048305;28;20426;-83
2021/06/28 07:21:48;;;;;;;13.00;6.97;;;20.10;99.90;;;;;;5050355;28;20369;-81
2021/06/28 07:24:15;;;;;;;14.88;7.05;;;20.20;99.90;;;;;;5054187;28;20037;-82
2021/06/28 07:26:42;;;;;;;13.80;7.25;;;20.20;99.90;;;;;;5053888;28;20472;-82
2021/06/28 07:29:09;;;;;;;13.98;7.40;;;20.10;99.90;;;;;;5037089;28;20053;-82
2021/06/28 07:31:35;;;;;;;10.05;6.85;;;20.20;99.90;;;;;;5036102;28;20045;-82
2021/06/28 07:34:01;;;;;;;13.20;7.30;;;20.30;99.90;;;;;;5053330;28;20040;-82
2021/06/28 07:36:27;;;;;;;11.77;7.05;;;20.40;99.90;;;;;;5054325;28;20125;-82
2021/06/28 07:38:53;;;;;;;10.57;6.38;;;20.30;99.90;;;;;;5048380;28;20055;-81
2021/06/28 07:41:19;;;;;;;18.15;7.15;;;20.50;99.90;;;;;;5053207;28;20063;-81
2021/06/28 07:43:45;;;;;;;12.73;6.60;;;20.60;99.90;;;;;;5034554;28;20414;-81
2021/06/28 07:46:11;;;;;;;12.60;6.55;;;20.60;99.90;;;;;;5051183;28;20049;-81
2021/06/28 07:48:37;;;;;;;10.82;7.10;;;20.70;99.90;;;;;;5069342;28;20037;-82
2021/06/28 07:51:05;;;;;;;11.52;7.10;;;20.80;99.90;;;;;;5052641;28;20037;-83
2021/06/28 07:53:35;;;;;;;12.00;6.80;;;20.90;99.90;;;;;;5052563;28;20029;-83
2021/06/28 07:56:14;;;;;;;11.73;6.57;;;21.00;99.90;;;;;;5048198;28;20395;-80
2021/06/28 07:58:44;;;;;;;12.85;7.85;;;21.00;99.90;;;;;;5052261;28;20044;-82
2021/06/28 08:01:10;;;;;;;14.45;7.00;;;21.00;99.90;;;;;;5049339;28;20116;-80
2021/06/28 08:03:36;;;;;;;9.70;7.20;;;21.10;99.90;;;;;;5052474;28;20036;-79
2021/06/28 08:06:02;;;;;;;11.35;7.07;;;21.20;99.90;;;;;;5054677;28;20036;-80
2021/06/28 08:08:28;;;;;;;14.30;7.05;;;21.30;99.90;;;;;;5031296;28;20049;-79
2021/06/28 08:10:54;;;;;;;18.10;7.88;;;21.40;99.90;;;;;;5051338;28;20037;-80
2021/06/28 08:13:20;;;;;;;12.77;7.82;;;21.50;99.90;;;;;;5045632;28;20122;-79
2021/06/28 08:15:46;;;;;;;11.77;7.10;;;21.50;99.90;;;;;;5053271;28;20071;-79
2021/06/28 08:18:11;;;;;;;12.00;7.32;;;21.60;99.90;;;;;;5041442;28;20037;-78
2021/06/28 08:20:37;;;;;;;16.45;7.93;;;21.70;99.90;;;;;;5051143;28;20504;-80
2021/06/28 08:23:04;;;;;;;20.33;7.75;;;21.70;99.90;;;;;;5070365;28;20037;-80
2021/06/28 08:25:30;;;;;;;13.50;7.30;;;21.80;99.90;;;;;;5044948;28;20053;-79
2021/06/28 08:27:56;;;;;;;11.18;7.32;;;21.90;99.90;;;;;;5048012;28;20064;-81
2021/06/28 08:30:22;;;;;;;14.80;7.40;;;21.90;99.90;;;;;;5047086;28;20037;-79
2021/06/28 08:32:48;;;;;;;15.45;7.78;;;22.10;99.90;;;;;;5051065;28;20127;-81
2021/06/28 08:35:15;;;;;;;16.23;7.72;;;21.90;99.90;;;;;;5044913;28;20045;-80
2021/06/28 08:37:40;;;;;;;14.43;7.28;;;22.10;99.90;;;;;;5046014;28;20041;-81
2021/06/28 08:40:09;;;;;;;11.55;6.97;;;22.30;99.90;;;;;;5054412;28;20110;-80
2021/06/28 08:42:35;;;;;;;11.80;8.07;;;22.30;99.90;;;;;;5052267;28;20055;-82
2021/06/28 08:45:02;;;;;;;13.00;7.40;;;22.40;99.90;;;;;;5052727;28;20043;-80
2021/06/28 08:47:28;;;;;;;12.70;7.85;;;22.50;99.90;;;;;;5052572;28;20429;-84
2021/06/28 08:49:54;;;;;;;13.20;7.38;;;22.70;99.90;;;;;;5051705;28;20124;-82
2021/06/28 08:52:21;;;;;;;16.63;7.70;;;22.80;99.90;;;;;;5052192;28;20155;-82
2021/06/28 08:54:47;;;;;;;14.75;7.30;;;23.00;99.90;;;;;;5035106;28;20037;-81
2021/06/28 08:57:13;;;;;;;12.25;7.65;;;22.80;99.90;;;;;;5050828;28;20037;-81
2021/06/28 08:59:42;;;;;;;14.02;7.72;;;22.90;99.90;;;;;;5047492;28;20378;-78
2021/06/28 09:02:08;;;;;;;12.23;7.30;;;22.90;99.90;;;;;;5069836;28;20035;-83
2021/06/28 09:04:34;;;;;;;10.63;7.25;;;23.00;99.90;;;;;;5051763;28;20033;-79
2021/06/28 09:07:20;;;;;;;14.77;8.07;;;23.10;99.90;;;;;;5044624;28;20051;-82
2021/06/28 09:09:46;;;;;;;16.63;7.25;;;23.00;99.90;;;;;;5051953;28;20067;-82
2021/06/28 09:12:17;;;;;;;15.68;7.65;;;23.10;99.90;;;;;;5033794;28;20073;-79
2021/06/28 09:14:49;;;;;;;9.75;6.78;;;23.10;99.90;;;;;;5052623;28;20461;-80
2021/06/28 09:17:38;;;;;;;14.20;7.22;;;23.20;99.90;;;;;;5049492;28;20043;-81
2021/06/28 09:20:19;;;;;;;11.90;7.00;;;23.40;99.90;;;;;;5031322;28;21983;-83
2021/06/28 09:22:46;;;;;;;11.30;7.40;;;23.60;99.90;;;;;;5046909;28;20056;-82
2021/06/28 09:25:32;;;;;;;10.88;7.80;;;23.80;99.90;;;;;;5045784;28;20056;-80
2021/06/28 09:27:58;;;;;;;10.80;6.82;;;23.80;99.90;;;;;;5049977;28;20044;-82
2021/06/28 09:30:25;;;;;;;14.50;7.35;;;24.10;99.90;;;;;;5035705;28;20080;-82
2021/06/28 09:32:52;;;;;;;11.93;7.15;;;24.20;99.90;;;;;;5031049;28;20057;-82
2021/06/28 09:35:34;;;;;;;11.80;6.85;;;24.30;99.90;;;;;;5052148;28;20115;-81
2021/06/28 09:38:03;;;;;;;18.30;7.93;;;24.40;99.90;;;;;;5045051;28;20048;-81
2021/06/28 09:40:29;;;;;;;11.30;7.82;;;24.60;99.90;;;;;;5052377;28;20420;-81
2021/06/28 09:42:55;;;;;;;10.80;6.07;;;24.60;99.90;;;;;;5053629;28;20102;-80
2021/06/28 09:45:21;;;;;;;7.10;5.70;;;24.80;99.90;;;;;;5045828;28;20056;-78
2021/06/28 09:47:51;;;;;;;8.15;5.95;;;25.00;99.90;;;;;;5050872;28;20488;-79
2021/06/28 09:50:23;;;;;;;8.52;7.53;;;25.10;99.90;;;;;;5032315;28;20044;-80
2021/06/28 09:52:56;;;;;;;8.52;6.95;;;25.10;99.90;;;;;;5028912;28;20037;-80
2021/06/28 09:55:34;;;;;;;9.30;6.60;;;25.00;99.90;;;;;;5043867;28;20045;-81
2021/06/28 09:58:17;;;;;;;8.50;5.68;;;25.10;99.90;;;;;;5050462;28;20134;-83
2021/06/28 10:00:50;;;;;;;13.38;5.88;;;25.50;99.90;;;;;;5040784;28;20413;-82
2021/06/28 10:03:44;;;;;;;10.25;5.65;;;25.60;99.90;;;;;;5028599;28;20041;-81
2021/06/28 10:06:25;;;;;;;7.13;5.75;;;25.80;99.90;;;;;;5047930;28;20421;-81
2021/06/28 10:09:05;;;;;;;8.20;5.85;;;26.00;99.90;;;;;;5076974;28;21394;-81
2021/06/28 10:11:31;;;;;;;7.47;5.40;;;25.90;99.90;;;;;;5065714;28;20158;-81
2021/06/28 10:14:05;;;;;;;6.10;5.50;;;26.10;99.90;;;;;;5062284;28;20433;-80
2021/06/28 10:16:33;;;;;;;7.03;5.30;;;26.20;99.90;;;;;;5065445;28;20543;-80
2021/06/28 10:19:04;;;;;;;8.90;5.18;;;26.40;99.90;;;;;;5083569;28;21651;-80
2021/06/28 10:21:31;;;;;;;7.95;5.28;;;26.60;99.90;;;;;;5068901;28;20490;-79
2021/06/28 10:23:57;;;;;;;12.18;5.13;;;26.50;99.90;;;;;;5061272;28;20079;-80
2021/06/28 10:26:24;;;;;;;6.85;5.20;;;26.70;99.90;;;;;;5034610;28;20138;-80
2021/06/28 10:28:50;;;;;;;6.22;4.97;;;26.80;99.90;;;;;;5053684;28;20411;-80
2021/06/28 10:31:16;;;;;;;8.50;5.25;;;26.90;99.90;;;;;;5052771;28;20412;-80
2021/06/28 10:33:51;;;;;;;8.57;5.95;;;27.10;99.90;;;;;;5053675;28;20055;-80
2021/06/28 10:36:19;;;;;;;8.43;6.00;;;27.20;99.90;;;;;;5053462;28;20057;-80
2021/06/28 10:38:56;;;;;;;8.75;5.57;;;27.20;99.90;;;;;;5045121;28;20040;-80
2021/06/28 10:41:40;;;;;;;6.25;5.10;;;27.30;99.90;;;;;;5053656;28;20057;-80
2021/06/28 10:44:11;;;;;;;8.50;5.43;;;27.30;99.90;;;;;;5049601;28;20504;-77
2021/06/28 10:46:39;;;;;;;7.05;5.65;;;27.60;99.90;;;;;;5051772;28;20060;-78
2021/06/28 10:49:06;;;;;;;6.38;5.78;;;27.50;99.90;;;;;;5069835;28;20041;-78
2021/06/28 10:51:48;;;;;;;6.93;6.20;;;27.50;99.90;;;;;;5050083;28;20120;-78
2021/06/28 10:54:16;;;;;;;7.00;5.90;;;27.30;99.90;;;;;;5067465;28;20388;-76
2021/06/28 10:56:51;;;;;;;7.55;6.38;;;27.30;99.90;;;;;;5048152;28;20037;-77
2021/06/28 10:59:24;;;;;;;8.65;6.28;;;27.20;99.90;;;;;;5051877;28;20037;-77
2021/06/28 11:02:02;;;;;;;7.38;6.07;;;27.00;99.90;;;;;;5054861;28;20043;-77
2021/06/28 11:04:35;;;;;;;7.45;6.25;;;27.00;99.90;;;;;;5053310;28;20078;-77
2021/06/28 11:07:05;;;;;;;7.43;6.00;;;27.00;99.90;;;;;;5054291;28;20423;-78
2021/06/28 11:09:48;;;;;;;7.68;6.00;;;27.10;99.90;;;;;;5073290;28;20033;-78
2021/06/28 11:12:17;;;;;;;16.90;6.30;;;27.00;99.90;;;;;;5053170;28;20044;-78
2021/06/28 11:14:53;;;;;;;5.88;5.05;;;27.20;99.90;;;;;;5053695;28;20687;-78
2021/06/28 11:17:37;;;;;;;5.18;4.65;;;27.20;99.90;;;;;;5054070;28;20061;-77
2021/06/28 11:20:06;;;;;;;5.53;4.60;;;27.50;99.90;;;;;;5050461;28;20040;-78
2021/06/28 11:22:41;;;;;;;10.18;4.82;;;28.00;99.90;;;;;;5053297;28;20036;-77
2021/06/28 11:25:14;;;;;;;12.32;5.32;;;28.00;99.90;;;;;;5070668;28;20053;-79
2021/06/28 11:27:46;;;;;;;6.72;4.43;;;28.50;99.90;;;;;;5051107;28;20384;-78
2021/06/28 11:30:15;;;;;;;9.68;5.03;;;28.80;99.90;;;;;;5053085;28;20041;-76
2021/06/28 11:33:05;;;;;;;7.13;4.72;;;28.50;99.90;;;;;;5052578;28;20411;-76
2021/06/28 11:35:52;;;;;;;11.40;5.32;;;28.80;99.90;;;;;;5052955;28;20178;-79
2021/06/28 11:38:22;;;;;;;7.22;4.80;;;28.50;99.90;;;;;;5051116;28;20036;-79
2021/06/28 11:40:54;;;;;;;5.90;5.22;;;28.50;99.90;;;;;;5054598;28;20041;-77
2021/06/28 11:43:44;;;;;;;5.38;3.95;;;28.20;99.90;;;;;;5054278;28;20037;-77
2021/06/28 11:46:10;;;;;;;9.07;3.80;;;28.20;99.90;;;;;;5053374;28;20080;-78
2021/06/28 11:49:07;;;;;;;8.52;3.78;;;28.60;99.90;;;;;;5039280;28;20484;-76
2021/06/28 11:51:35;;;;;;;6.78;3.70;;;28.70;99.60;;;;;;5058711;28;20179;-77
2021/06/28 11:54:07;;;;;;;5.20;3.78;;;28.90;99.90;;;;;;5042423;28;20131;-78
2021/06/28 11:56:37;;;;;;;3.83;3.33;;;29.40;99.90;;;;;;5064604;28;20159;-79
2021/06/28 11:59:05;;;;;;;3.97;3.50;;;29.70;99.70;;;;;;5066276;28;20048;-79
2021/06/28 12:01:34;;;;;;;5.30;3.72;;;30.00;99.20;;;;;;5053396;28;20041;-79
2021/06/28 12:04:01;;;;;;;6.95;3.78;;;30.20;98.70;;;;;;5070956;28;20040;-80
2021/06/28 12:06:29;;;;;;;8.77;3.80;;;30.40;99.90;;;;;;5072104;28;20174;-80
2021/06/28 12:09:15;;;;;;;4.85;3.70;;;30.70;99.60;;;;;;5068627;28;20052;-80
2021/06/28 12:12:02;;;;;;;5.95;3.53;;;30.30;98.40;;;;;;5081104;28;20049;-80
2021/06/28 12:14:38;;;;;;;4.18;3.78;;;30.30;97.70;;;;;;5063312;28;20040;-81
2021/06/28 12:17:24;;;;;;;13.05;4.18;;;30.40;97.70;;;;;;5046846;28;20048;-80
2021/06/28 12:19:52;;;;;;;5.97;3.53;;;30.30;97.90;;;;;;5069697;28;20064;-82
2021/06/28 12:22:21;;;;;;;9.68;4.18;;;30.60;98.10;;;;;;5063933;28;20116;-82
2021/06/28 12:24:55;;;;;;;5.18;4.00;;;30.70;96.70;;;;;;5033859;28;20444;-82
2021/06/28 12:27:25;;;;;;;7.07;3.60;;;31.50;98.60;;;;;;5065959;28;20140;-82
2021/06/28 12:29:53;;;;;;;4.28;3.55;;;31.20;96.20;;;;;;5052130;28;20048;-82
2021/06/28 12:32:25;;;;;;;7.40;3.67;;;31.00;95.90;;;;;;5051326;28;20044;-79
2021/06/28 12:34:53;;;;;;;4.40;3.85;;;30.80;96.40;;;;;;5047684;28;20225;-79
2021/06/28 12:37:27;;;;;;;5.53;4.00;;;30.50;96.50;;;;;;5051483;28;20053;-80
2021/06/28 12:40:09;;;;;;;5.57;4.18;;;30.20;96.60;;;;;;5075137;28;20373;-80
2021/06/28 12:42:41;;;;;;;7.63;4.10;;;29.70;97.20;;;;;;5048818;28;20064;-81
2021/06/28 12:45:09;;;;;;;5.57;3.88;;;29.60;97.10;;;;;;5040369;28;20136;-79
2021/06/28 12:47:35;;;;;;;4.47;4.03;;;29.30;97.30;;;;;;5051010;28;20056;-79
2021/06/28 12:50:02;;;;;;;4.18;3.75;;;29.50;97.50;;;;;;5050903;28;20036;-79
2021/06/28 12:52:32;;;;;;;5.07;3.60;;;30.10;99.10;;;;;;5049372;28;20074;-79
2021/06/28 12:55:10;;;;;;;6.60;4.00;;;30.30;97.00;;;;;;5051027;28;20041;-79